Time;durP1;ratioP1;P1;durP2;ratioP2;P2;SDS_P1;SDS_P2;PMS_P1;PMS_P2;Temp;Humidity;BMP_temperature;BMP_pressure;BME280_temperature;BME280_humidity;BME280_pressure;Samples;Min_cycle;Max_cycle;Signal;HPM_P1;HPM_P2
2022/03/04 00:00:52;;;;;;;3.55;0.88;;;;;;;21.19;28.67;102354.41;4217871;28;20479;-44
2022/03/04 00:02:55;;;;;;;4.53;1.40;;;;;;;21.23;28.35;102363.97;4204388;28;20044;-42
2022/03/04 00:04:56;;;;;;;5.68;1.10;;;;;;;21.22;28.52;102370.63;4215074;28;20094;-49
2022/03/04 00:06:58;;;;;;;6.57;1.10;;;;;;;21.24;28.37;102384.28;4215703;28;20039;-46
2022/03/04 00:08:59;;;;;;;3.15;0.98;;;;;;;21.22;28.51;102384.53;4219006;28;20092;-47
2022/03/04 00:11:02;;;;;;;6.47;1.00;;;;;;;21.23;28.25;102391.81;4216495;28;20103;-44
2022/03/04 00:13:03;;;;;;;6.85;1.10;;;;;;;21.17;28.37;102387.25;4207942;28;20044;-44
2022/03/04 00:15:05;;;;;;;6.65;1.40;;;;;;;21.21;28.18;102404.25;4213806;28;20459;-44
2022/03/04 00:17:07;;;;;;;6.03;1.25;;;;;;;21.21;27.60;102412.63;4213945;28;20048;-44
2022/03/04 00:19:09;;;;;;;4.60;0.93;;;;;;;21.20;28.30;102409.00;4213794;28;20036;-44
2022/03/04 00:21:11;;;;;;;8.80;1.48;;;;;;;21.19;28.11;102412.03;4214317;28;20094;-45
2022/03/04 00:23:13;;;;;;;6.25;1.20;;;;;;;21.19;28.38;102418.44;4212928;28;20157;-47
2022/03/04 00:25:15;;;;;;;3.80;1.15;;;;;;;21.16;28.37;102424.50;4213136;28;20417;-46
2022/03/04 00:27:16;;;;;;;2.58;0.98;;;;;;;21.21;28.48;102444.13;4213272;28;20048;-49
2022/03/04 00:29:18;;;;;;;4.38;1.27;;;;;;;21.22;28.66;102440.22;4213489;28;20476;-48
2022/03/04 00:31:19;;;;;;;4.55;1.38;;;;;;;21.20;28.27;102442.41;4214893;28;20051;-44
2022/03/04 00:33:21;;;;;;;7.85;1.10;;;;;;;21.23;28.64;102461.41;4216733;28;20032;-46
2022/03/04 00:35:22;;;;;;;9.18;1.23;;;;;;;21.24;28.70;102460.31;4216946;28;20073;-46
2022/03/04 00:37:24;;;;;;;12.30;1.23;;;;;;;21.25;28.54;102466.72;4216776;28;20422;-45
2022/03/04 00:39:25;;;;;;;10.68;2.13;;;;;;;21.19;28.88;102457.41;4216075;28;20044;-47
2022/03/04 00:41:27;;;;;;;7.93;1.40;;;;;;;21.25;28.39;102478.69;4216780;28;20044;-46
2022/03/04 00:43:28;;;;;;;11.88;2.03;;;;;;;21.25;28.51;102477.84;4216468;28;20097;-46
2022/03/04 00:45:29;;;;;;;10.32;1.50;;;;;;;21.27;28.90;102484.88;4216614;28;20415;-46
2022/03/04 00:47:30;;;;;;;9.68;1.63;;;;;;;21.28;28.70;102489.34;4216381;28;20028;-46
2022/03/04 00:49:34;;;;;;;7.57;2.00;;;;;;;21.25;28.48;102489.00;4215038;28;20078;-43
2022/03/04 00:51:35;;;;;;;11.32;1.52;;;;;;;21.30;28.62;102503.88;4216254;28;20077;-44
2022/03/04 00:53:37;;;;;;;7.88;1.65;;;;;;;21.33;28.76;102512.84;4216140;28;20047;-43
2022/03/04 00:55:39;;;;;;;7.88;1.70;;;;;;;21.34;28.16;102514.53;4216700;28;20121;-46
2022/03/04 00:57:40;;;;;;;16.35;1.75;;;;;;;21.34;28.53;102518.16;4216806;28;20040;-47
2022/03/04 00:59:42;;;;;;;9.50;1.63;;;;;;;21.34;28.43;102520.97;4216288;28;20544;-43
2022/03/04 01:01:43;;;;;;;7.53;1.38;;;;;;;21.37;28.29;102533.56;4216479;28;20117;-45
2022/03/04 01:03:45;;;;;;;8.70;1.80;;;;;;;21.33;28.37;102530.41;4215853;28;20039;-43
2022/03/04 01:05:46;;;;;;;6.78;1.58;;;;;;;21.40;28.66;102547.00;4216217;28;20044;-49
2022/03/04 01:07:48;;;;;;;7.30;1.20;;;;;;;21.41;28.17;102543.13;4216328;28;20036;-45
2022/03/04 01:09:49;;;;;;;5.53;1.27;;;;;;;21.42;28.40;102550.38;4216133;28;20479;-44
2022/03/04 01:11:51;;;;;;;13.05;1.50;;;;;;;21.42;28.46;102554.00;4215637;28;20480;-45
2022/03/04 01:13:53;;;;;;;11.85;1.45;;;;;;;21.43;28.18;102563.19;4214917;28;20445;-47
2022/03/04 01:15:55;;;;;;;5.45;1.58;;;;;;;21.44;27.98;102571.31;4215982;28;20449;-45
2022/03/04 01:17:56;;;;;;;11.13;3.05;;;;;;;21.46;27.89;102580.28;4216189;28;20097;-43
2022/03/04 01:19:58;;;;;;;8.20;1.58;;;;;;;21.45;27.98;102583.31;4215632;28;20421;-46
2022/03/04 01:21:59;;;;;;;12.15;1.77;;;;;;;21.48;28.30;102585.59;4213811;28;20161;-47
2022/03/04 01:24:04;;;;;;;8.82;1.63;;;;;;;21.46;28.26;102588.63;4215772;28;20562;-46
2022/03/04 01:26:05;;;;;;;12.25;1.52;;;;;;;21.50;28.32;102602.91;4204913;28;20058;-46
2022/03/04 01:28:07;;;;;;;9.68;1.70;;;;;;;21.50;28.04;102608.47;4214528;28;20073;-43
2022/03/04 01:30:14;;;;;;;9.98;1.38;;;;;;;21.51;28.24;102604.59;4216006;28;20024;-43
2022/03/04 01:32:15;;;;;;;8.98;1.50;;;;;;;21.51;28.32;102615.75;4215149;28;20044;-46
2022/03/04 01:34:16;;;;;;;8.82;1.90;;;;;;;21.51;27.81;102616.59;4216099;28;20036;-47
2022/03/04 01:36:18;;;;;;;11.43;1.98;;;;;;;21.53;28.05;102619.13;4215816;28;20124;-45
2022/03/04 01:38:20;;;;;;;10.20;2.33;;;;;;;21.52;28.20;102623.00;4215853;28;20097;-48
2022/03/04 01:40:21;;;;;;;13.50;2.40;;;;;;;21.53;28.16;102633.03;4214834;28;20062;-45
2022/03/04 01:42:22;;;;;;;10.25;1.88;;;;;;;21.56;27.69;102643.72;4215426;28;20061;-44
2022/03/04 01:44:24;;;;;;;16.05;2.50;;;;;;;21.57;28.19;102653.75;4215552;28;20040;-45
2022/03/04 01:46:29;;;;;;;11.07;1.75;;;;;;;21.56;28.28;102657.63;4215193;28;20036;-44
2022/03/04 01:48:30;;;;;;;15.45;2.17;;;;;;;21.60;27.73;102664.41;4213861;28;20536;-49
2022/03/04 01:50:32;;;;;;;15.55;3.03;;;;;;;21.60;27.77;102666.34;4215198;28;20102;-46
2022/03/04 01:52:33;;;;;;;7.78;1.73;;;;;;;21.61;27.99;102679.19;4214565;28;20047;-44
2022/03/04 01:54:35;;;;;;;13.25;1.42;;;;;;;21.62;27.89;102684.50;4214727;28;20043;-45
2022/03/04 01:56:37;;;;;;;7.95;1.67;;;;;;;21.63;28.39;102686.22;4214946;28;20032;-46
2022/03/04 01:58:38;;;;;;;14.23;1.73;;;;;;;21.57;28.06;102676.03;4215367;28;20093;-48
2022/03/04 02:00:40;;;;;;;9.73;1.42;;;;;;;21.64;27.93;102690.69;4214551;28;20479;-50
2022/03/04 02:02:44;;;;;;;7.65;1.45;;;;;;;21.65;28.00;102706.31;4215538;28;20040;-49
2022/03/04 02:04:45;;;;;;;10.52;1.30;;;;;;;21.64;28.30;102699.06;4215684;28;20171;-44
2022/03/04 02:06:47;;;;;;;9.60;1.55;;;;;;;21.66;28.16;102690.44;4215073;28;20053;-47
2022/03/04 02:08:48;;;;;;;7.18;1.52;;;;;;;21.66;28.36;102708.00;4215404;28;20024;-45
2022/03/04 02:10:50;;;;;;;10.05;1.70;;;;;;;21.65;27.92;102720.25;4214531;28;20040;-50
2022/03/04 02:12:52;;;;;;;9.82;1.70;;;;;;;21.66;27.95;102721.09;4215227;28;20043;-44
2022/03/04 02:14:54;;;;;;;9.77;1.55;;;;;;;21.68;28.15;102718.94;4214724;28;20149;-43
2022/03/04 02:16:58;;;;;;;12.88;1.42;;;;;;;21.65;28.03;102723.03;4215661;28;20376;-46
2022/03/04 02:19:00;;;;;;;7.10;1.20;;;;;;;21.69;27.89;102735.41;4215115;28;20077;-45
2022/03/04 02:21:03;;;;;;;7.70;1.30;;;;;;;21.71;27.86;102738.78;4213190;28;20310;-46
2022/03/04 02:23:04;;;;;;;7.38;1.50;;;;;;;21.72;28.25;102743.28;4215221;28;20360;-44
2022/03/04 02:25:06;;;;;;;9.50;1.67;;;;;;;21.72;28.12;102746.06;4214106;28;20036;-45
2022/03/04 02:27:08;;;;;;;9.93;1.42;;;;;;;21.73;27.86;102752.47;4214504;28;20039;-45
2022/03/04 02:29:09;;;;;;;6.35;1.50;;;;;;;21.71;27.85;102749.91;4214135;28;20484;-44
2022/03/04 02:31:16;;;;;;;11.10;1.77;;;;;;;21.67;27.96;102743.16;4213815;28;20089;-44
2022/03/04 02:33:17;;;;;;;5.15;1.42;;;;;;;21.73;28.16;102755.25;4214827;28;20044;-45
2022/03/04 02:35:21;;;;;;;5.60;1.38;;;;;;;21.73;28.22;102758.91;4214860;28;20105;-46
2022/03/04 02:37:23;;;;;;;8.77;1.38;;;;;;;21.74;27.82;102765.31;4214153;28;20113;-45
2022/03/04 02:39:25;;;;;;;14.10;1.60;;;;;;;21.75;27.76;102772.56;4214637;28;20048;-46
2022/03/04 02:41:26;;;;;;;9.98;1.30;;;;;;;21.74;28.23;102774.53;4213730;28;20024;-46
2022/03/04 02:43:28;;;;;;;15.88;1.45;;;;;;;21.74;28.11;102780.09;4213986;28;20105;-45
2022/03/04 02:45:29;;;;;;;13.40;1.92;;;;;;;21.74;27.83;102788.44;4214254;28;20044;-44
2022/03/04 02:47:30;;;;;;;9.55;1.20;;;;;;;21.75;28.23;102790.13;4214832;28;20039;-46
2022/03/04 02:49:32;;;;;;;7.30;1.30;;;;;;;21.76;28.20;102796.56;4214375;28;20121;-51
2022/03/04 02:51:34;;;;;;;4.20;1.15;;;;;;;21.74;27.90;102805.16;4213960;28;20048;-47
2022/03/04 02:53:35;;;;;;;5.07;1.35;;;;;;;21.73;27.96;102809.06;4213714;28;20040;-46
2022/03/04 02:55:36;;;;;;;7.95;1.40;;;;;;;21.76;28.21;102819.72;4214233;28;20462;-47
2022/03/04 02:57:41;;;;;;;8.20;1.13;;;;;;;21.77;28.00;102815.00;4213950;28;20093;-46
2022/03/04 02:59:42;;;;;;;6.67;1.23;;;;;;;21.77;28.14;102823.34;4212425;28;20544;-44
2022/03/04 03:01:43;;;;;;;5.50;1.40;;;;;;;21.76;28.06;102830.00;4208900;28;20333;-46
2022/03/04 03:03:45;;;;;;;6.72;1.27;;;;;;;21.77;28.27;102829.78;4220760;28;20039;-49
2022/03/04 03:05:46;;;;;;;7.47;1.20;;;;;;;21.78;28.29;102839.81;4209706;28;20082;-43
2022/03/04 03:07:47;;;;;;;6.97;1.15;;;;;;;21.78;28.03;102834.25;4211327;28;20039;-48
2022/03/04 03:09:49;;;;;;;4.35;1.33;;;;;;;21.78;28.04;102838.97;4214953;28;20040;-47
2022/03/04 03:11:50;;;;;;;6.07;1.20;;;;;;;21.79;28.28;102841.53;4213724;28;20097;-47
2022/03/04 03:13:52;;;;;;;9.48;1.17;;;;;;;21.78;28.18;102845.41;4217087;28;20040;-51
2022/03/04 03:15:53;;;;;;;10.65;1.27;;;;;;;21.80;27.83;102859.94;4214345;28;20039;-48
2022/03/04 03:17:55;;;;;;;11.13;1.20;;;;;;;21.80;28.24;102854.34;4214796;28;20039;-45
2022/03/04 03:19:56;;;;;;;8.52;1.23;;;;;;;21.79;28.05;102858.25;4219778;28;20056;-44
2022/03/04 03:21:58;;;;;;;6.75;1.35;;;;;;;21.79;28.02;102861.03;4203719;28;20040;-45
2022/03/04 03:23:59;;;;;;;4.55;1.00;;;;;;;21.77;28.35;102854.84;4213984;28;20044;-48
2022/03/04 03:26:00;;;;;;;6.03;1.42;;;;;;;21.80;27.92;102859.94;4221846;28;20510;-45
2022/03/04 03:28:05;;;;;;;4.32;1.20;;;;;;;21.80;28.05;102859.94;4210247;28;20043;-46
2022/03/04 03:30:08;;;;;;;5.77;1.50;;;;;;;21.81;28.29;102869.16;4221879;27;20121;-44
2022/03/04 03:32:13;;;;;;;5.30;1.33;;;;;;;21.81;28.33;102870.00;4223624;28;20052;-44
2022/03/04 03:34:17;;;;;;;10.07;1.73;;;;;;;21.82;27.94;102884.78;4211881;28;20035;-44
2022/03/04 03:36:20;;;;;;;11.02;1.85;;;;;;;21.82;28.00;102882.00;4205798;28;20164;-44
2022/03/04 03:38:23;;;;;;;13.07;1.48;;;;;;;21.79;27.89;102872.16;4216225;28;20040;-46
2022/03/04 03:40:24;;;;;;;6.32;1.40;;;;;;;21.76;28.22;102881.03;4217995;28;20085;-44
2022/03/04 03:42:25;;;;;;;5.20;1.60;;;;;;;21.81;28.02;102894.25;4220502;28;20028;-45
2022/03/04 03:44:27;;;;;;;7.72;0.85;;;;;;;21.76;27.88;102892.19;4221272;28;20031;-44
2022/03/04 03:46:28;;;;;;;3.60;0.98;;;;;;;21.79;28.03;102897.25;4216252;28;20494;-49
2022/03/04 03:48:32;;;;;;;3.75;1.30;;;;;;;21.78;28.18;102901.13;4218352;28;20033;-43
2022/03/04 03:50:34;;;;;;;5.20;1.17;;;;;;;21.79;28.12;102908.41;4221965;28;20101;-45
2022/03/04 03:52:36;;;;;;;3.40;1.08;;;;;;;21.79;28.07;102908.41;4207353;28;20044;-44
2022/03/04 03:54:37;;;;;;;7.30;1.05;;;;;;;21.78;28.43;102915.06;4211005;28;20044;-43
2022/03/04 03:56:39;;;;;;;2.50;1.13;;;;;;;21.78;28.30;102919.78;4222637;28;20456;-45
2022/03/04 03:58:40;;;;;;;5.25;2.08;;;;;;;21.77;28.03;102915.31;4197791;28;20032;-42
2022/03/04 04:00:42;;;;;;;6.20;1.23;;;;;;;21.76;28.34;102917.25;4209341;28;20565;-43
2022/03/04 04:02:46;;;;;;;8.45;1.27;;;;;;;21.76;28.10;102920.03;4219117;28;20036;-43
2022/03/04 04:04:47;;;;;;;5.28;1.23;;;;;;;21.71;28.08;102917.09;4215676;28;20051;-43
2022/03/04 04:06:48;;;;;;;4.70;0.93;;;;;;;21.75;28.29;102929.47;4200455;28;20468;-47
2022/03/04 04:08:50;;;;;;;10.07;1.25;;;;;;;21.72;28.21;102918.81;4205645;28;20043;-44
2022/03/04 04:10:51;;;;;;;4.95;1.63;;;;;;;21.73;27.94;102926.09;4216501;28;20152;-46
2022/03/04 04:12:52;;;;;;;7.38;1.15;;;;;;;21.73;28.29;102934.44;4218238;28;20552;-45
2022/03/04 04:14:54;;;;;;;3.17;1.00;;;;;;;21.73;28.23;102936.38;4216888;28;20085;-44
2022/03/04 04:16:56;;;;;;;4.25;1.02;;;;;;;21.69;28.15;102944.38;4204499;28;20089;-45
2022/03/04 04:18:58;;;;;;;3.75;0.80;;;;;;;21.70;27.84;102954.41;4217558;27;20036;-43
2022/03/04 04:20:59;;;;;;;6.10;1.20;;;;;;;21.70;28.17;102959.16;4200126;28;20094;-45
2022/03/04 04:23:01;;;;;;;3.20;1.10;;;;;;;21.69;27.99;102963.88;4213798;28;20040;-45
2022/03/04 04:25:03;;;;;;;5.05;0.80;;;;;;;21.66;28.07;102967.13;4207458;28;20376;-43
2022/03/04 04:27:04;;;;;;;4.70;1.08;;;;;;;21.65;28.37;102984.94;4216730;28;20101;-46
2022/03/04 04:29:05;;;;;;;5.40;1.25;;;;;;;21.67;28.03;102982.78;4216503;28;20032;-45
2022/03/04 04:31:07;;;;;;;3.22;0.95;;;;;;;21.66;28.31;102985.78;4225948;28;20112;-43
2022/03/04 04:33:08;;;;;;;3.65;1.00;;;;;;;21.65;27.80;102987.72;4224115;28;20084;-48
2022/03/04 04:35:09;;;;;;;5.32;0.95;;;;;;;21.65;28.02;102984.09;4216645;28;20057;-43
2022/03/04 04:37:11;;;;;;;4.97;1.58;;;;;;;21.64;28.15;102994.38;4216766;28;20077;-47
2022/03/04 04:39:13;;;;;;;2.85;0.82;;;;;;;21.57;28.22;102985.25;4215746;28;20044;-45
2022/03/04 04:41:14;;;;;;;2.85;0.90;;;;;;;21.63;28.06;102992.69;4210705;28;20044;-44
2022/03/04 04:43:16;;;;;;;7.38;1.70;;;;;;;21.63;28.29;103003.84;4216877;28;20052;-47
2022/03/04 04:45:17;;;;;;;3.63;0.70;;;;;;;21.62;28.12;103002.13;4209618;28;20116;-48
2022/03/04 04:47:19;;;;;;;4.80;1.30;;;;;;;21.62;27.95;103002.13;4217112;28;20113;-46
2022/03/04 04:49:20;;;;;;;5.18;0.82;;;;;;;21.59;28.05;103002.59;4216400;28;20036;-44
2022/03/04 04:51:24;;;;;;;7.35;0.90;;;;;;;21.61;27.89;103010.72;4216020;28;20048;-47
2022/03/04 04:53:27;;;;;;;6.57;1.52;;;;;;;21.53;28.28;103009.97;4215776;28;20537;-49
2022/03/04 04:55:28;;;;;;;3.75;0.90;;;;;;;21.57;27.98;103032.63;4215898;28;20107;-48
2022/03/04 04:57:29;;;;;;;3.58;1.02;;;;;;;21.56;27.84;103025.34;4223028;28;20104;-45
2022/03/04 04:59:31;;;;;;;2.92;0.90;;;;;;;21.51;28.32;103019.66;4210093;28;20453;-49
2022/03/04 05:01:32;;;;;;;3.15;1.05;;;;;;;21.54;27.95;103025.59;4215815;28;20487;-44
2022/03/04 05:03:34;;;;;;;1.98;0.70;;;;;;;21.54;28.24;103031.19;4215316;28;20036;-44
2022/03/04 05:05:35;;;;;;;5.43;1.17;;;;;;;21.54;28.01;103035.91;4216272;28;20024;-46
2022/03/04 05:07:37;;;;;;;3.33;0.73;;;;;;;21.52;27.77;103046.41;4216465;28;20133;-44
2022/03/04 05:09:39;;;;;;;2.45;0.70;;;;;;;21.47;28.23;103037.91;4216730;28;20043;-47
2022/03/04 05:11:40;;;;;;;2.35;0.77;;;;;;;21.50;28.11;103054.16;4215336;28;20044;-49
2022/03/04 05:13:42;;;;;;;4.07;0.82;;;;;;;21.49;28.31;103053.31;4204625;28;20039;-45
2022/03/04 05:15:43;;;;;;;2.53;0.82;;;;;;;21.50;28.14;103065.31;4215438;28;20040;-46
2022/03/04 05:17:50;;;;;;;2.75;0.90;;;;;;;21.48;28.31;103064.66;4216064;28;20105;-43
2022/03/04 05:19:51;;;;;;;4.47;0.65;;;;;;;21.47;28.11;103074.13;4214748;28;20090;-45
2022/03/04 05:21:53;;;;;;;2.70;1.00;;;;;;;21.47;28.50;103065.75;4215649;28;20108;-45
2022/03/04 05:24:01;;;;;;;1.55;0.80;;;;;;;21.42;28.35;103063.69;4215561;28;20429;-43
2022/03/04 05:26:02;;;;;;;3.22;1.60;;;;;;;21.46;28.37;103075.22;4215600;28;20044;-43
2022/03/04 05:28:04;;;;;;;3.45;0.80;;;;;;;21.43;28.21;103070.09;4216347;28;20540;-49
2022/03/04 05:30:06;;;;;;;3.03;0.80;;;;;;;21.40;27.74;103071.44;4214442;28;20109;-44
2022/03/04 05:32:07;;;;;;;3.05;1.00;;;;;;;21.41;28.18;103075.91;4215637;28;20070;-45
2022/03/04 05:34:10;;;;;;;1.65;1.08;;;;;;;21.39;27.98;103085.56;4210630;28;20112;-46
2022/03/04 05:36:11;;;;;;;5.82;0.90;;;;;;;21.39;27.98;103100.34;4198878;28;20048;-45
2022/03/04 05:38:13;;;;;;;1.52;0.73;;;;;;;21.38;27.86;103108.94;4206502;28;20044;-42
2022/03/04 05:40:14;;;;;;;3.85;1.17;;;;;;;21.37;27.94;103104.47;4215458;28;20094;-43
2022/03/04 05:42:16;;;;;;;1.42;0.88;;;;;;;21.37;28.36;103098.88;4215641;28;20089;-43
2022/03/04 05:44:17;;;;;;;2.10;0.80;;;;;;;21.35;28.45;103106.59;4215672;28;20081;-44
2022/03/04 05:46:19;;;;;;;2.97;1.10;;;;;;;21.34;28.38;103104.91;4215710;28;20097;-46
2022/03/04 05:48:20;;;;;;;5.07;1.60;;;;;;;21.31;28.09;103101.53;4215689;28;20178;-43
2022/03/04 05:50:22;;;;;;;2.42;0.80;;;;;;;21.33;28.11;103092.06;4215681;28;20043;-43
2022/03/04 05:52:23;;;;;;;3.40;0.95;;;;;;;21.33;28.33;103092.06;4215282;28;20044;-44
2022/03/04 05:54:24;;;;;;;2.67;0.80;;;;;;;21.31;28.15;103101.53;4215634;28;20097;-45
2022/03/04 05:56:28;;;;;;;2.67;1.17;;;;;;;21.26;28.21;103100.50;4215607;28;20413;-46
2022/03/04 05:58:30;;;;;;;2.92;0.90;;;;;;;21.30;27.92;103110.94;4215696;28;20023;-46
2022/03/04 06:00:32;;;;;;;1.00;0.68;;;;;;;21.28;28.04;103113.06;4214495;28;20036;-43
2022/03/04 06:02:33;;;;;;;1.20;0.70;;;;;;;21.23;27.97;103106.50;4214884;28;20089;-45
2022/03/04 06:04:35;;;;;;;2.00;0.73;;;;;;;21.27;28.18;103118.88;4215647;28;20028;-42
2022/03/04 06:06:36;;;;;;;2.90;0.60;;;;;;;21.26;28.23;103131.13;4215163;28;20036;-48
2022/03/04 06:08:40;;;;;;;1.92;0.85;;;;;;;21.22;28.02;103136.28;4215369;28;20040;-45
2022/03/04 06:10:42;;;;;;;2.47;0.57;;;;;;;21.24;28.19;103145.25;4215030;28;20043;-43
2022/03/04 06:12:43;;;;;;;1.52;0.73;;;;;;;21.23;27.89;103143.56;4215521;28;20465;-44
2022/03/04 06:14:45;;;;;;;2.40;0.85;;;;;;;21.23;28.15;103142.72;4215307;28;20421;-46
2022/03/04 06:16:46;;;;;;;2.65;0.70;;;;;;;21.21;27.86;103131.81;4215753;28;20101;-46
2022/03/04 06:18:47;;;;;;;2.35;0.70;;;;;;;21.21;27.73;103140.16;4215147;28;20040;-46
2022/03/04 06:20:49;;;;;;;3.53;1.05;;;;;;;21.19;28.07;103136.75;4215138;28;20085;-42
2022/03/04 06:22:50;;;;;;;2.55;0.52;;;;;;;21.18;27.83;103146.19;4215423;28;20085;-43
2022/03/04 06:24:51;;;;;;;0.95;0.63;;;;;;;21.13;27.89;103140.44;4214251;28;20040;-43
2022/03/04 06:26:53;;;;;;;1.33;0.60;;;;;;;21.11;28.02;103137.03;4214831;28;20364;-47
2022/03/04 06:28:54;;;;;;;0.98;0.52;;;;;;;21.17;28.08;103146.41;4212687;28;20520;-44
2022/03/04 06:30:56;;;;;;;1.27;0.50;;;;;;;21.16;28.18;103148.31;4214395;28;20113;-44
2022/03/04 06:35:20;;;;;;;2.72;0.70;;;;;;;21.14;28.01;103160.78;4215113;28;20069;-43
2022/03/04 06:37:22;;;;;;;3.38;0.65;;;;;;;21.11;27.95;103164.88;4214920;28;20387;-43
2022/03/04 06:39:23;;;;;;;0.98;0.50;;;;;;;21.11;27.79;103162.09;4214889;28;20040;-45
2022/03/04 06:41:24;;;;;;;2.92;0.82;;;;;;;21.08;27.90;103154.22;4214589;28;20040;-44
2022/03/04 06:43:26;;;;;;;1.27;0.63;;;;;;;21.08;27.91;103154.22;4215010;28;20448;-43
2022/03/04 06:45:28;;;;;;;3.55;0.80;;;;;;;21.08;27.84;103133.88;4214781;28;20409;-44
2022/03/04 06:47:29;;;;;;;2.20;1.40;;;;;;;21.05;27.95;103132.38;4214907;28;20028;-42
2022/03/04 06:49:30;;;;;;;0.80;0.50;;;;;;;21.03;27.92;103157.69;4215010;28;20032;-45
2022/03/04 06:51:32;;;;;;;0.98;0.80;;;;;;;21.01;27.58;103167.31;4214461;28;20040;-45
2022/03/04 06:53:33;;;;;;;1.42;0.70;;;;;;;20.96;27.77;103164.38;4214942;28;20048;-46
2022/03/04 06:55:35;;;;;;;1.10;0.88;;;;;;;21.00;28.02;103188.75;4214733;28;20039;-45
2022/03/04 06:57:39;;;;;;;1.10;0.70;;;;;;;21.00;27.80;103187.91;4214895;28;20090;-45
2022/03/04 06:59:40;;;;;;;3.13;0.70;;;;;;;20.99;28.01;103167.56;4214995;28;20028;-45
2022/03/04 07:01:44;;;;;;;0.60;0.60;;;;;;;20.97;27.84;103161.34;4214510;28;20093;-45
2022/03/04 07:03:45;;;;;;;1.58;0.70;;;;;;;20.95;27.65;103157.13;4214990;28;20046;-50
2022/03/04 07:05:46;;;;;;;1.40;0.80;;;;;;;20.96;27.79;103164.38;4214553;28;20043;-45
2022/03/04 07:07:53;;;;;;;3.50;0.73;;;;;;;20.94;28.03;103175.75;4214780;28;20040;-43
2022/03/04 07:09:54;;;;;;;0.85;0.60;;;;;;;20.94;28.00;103184.09;4214291;28;20085;-44
2022/03/04 07:11:56;;;;;;;0.93;0.50;;;;;;;20.94;28.04;103191.59;4214299;28;20032;-44
2022/03/04 07:13:57;;;;;;;2.92;0.65;;;;;;;20.92;27.80;103182.59;4214810;28;20044;-44
2022/03/04 07:15:59;;;;;;;2.10;0.80;;;;;;;20.90;27.71;103188.41;4213928;28;20032;-42
2022/03/04 07:18:00;;;;;;;1.20;0.80;;;;;;;20.89;27.99;103180.25;4214877;28;20086;-42
2022/03/04 07:20:04;;;;;;;1.65;0.60;;;;;;;20.88;27.63;103168.28;4214602;28;20028;-45
2022/03/04 07:22:06;;;;;;;1.45;0.73;;;;;;;20.88;27.71;103173.00;4214515;28;20040;-43
2022/03/04 07:24:07;;;;;;;0.57;0.50;;;;;;;20.88;27.69;103173.00;4214878;28;20116;-44
2022/03/04 07:26:10;;;;;;;1.52;0.73;;;;;;;20.85;27.73;103179.00;4214765;28;20093;-43
2022/03/04 07:28:11;;;;;;;1.60;0.70;;;;;;;20.83;27.76;103181.19;4214264;28;20116;-49
2022/03/04 07:30:14;;;;;;;1.42;0.60;;;;;;;20.84;27.85;103185.66;4214436;28;20036;-47
2022/03/04 07:32:16;;;;;;;1.25;0.60;;;;;;;20.83;27.72;103170.06;4214292;28;20036;-49
2022/03/04 07:34:17;;;;;;;1.08;0.70;;;;;;;20.79;27.57;103159.38;4212281;28;20036;-46
2022/03/04 07:36:19;;;;;;;1.02;0.90;;;;;;;20.79;27.79;103159.38;4210987;28;20462;-46
2022/03/04 07:38:20;;;;;;;1.77;0.60;;;;;;;20.68;27.80;103146.19;4214351;28;20040;-46
2022/03/04 07:40:22;;;;;;;0.88;0.68;;;;;;;20.76;27.87;103170.13;4213820;28;20096;-44
2022/03/04 07:42:23;;;;;;;1.38;0.80;;;;;;;20.76;27.64;103165.41;4213766;28;20036;-45
2022/03/04 07:44:24;;;;;;;1.55;0.50;;;;;;;20.71;27.81;103165.25;4214206;28;20032;-44
2022/03/04 07:46:26;;;;;;;1.42;0.80;;;;;;;20.74;27.93;103152.78;4213750;28;20036;-43
2022/03/04 07:48:27;;;;;;;0.98;0.50;;;;;;;20.72;27.61;103163.31;4214652;28;20028;-42
2022/03/04 07:50:29;;;;;;;0.90;0.60;;;;;;;20.71;27.70;103172.69;4211834;28;20036;-48
2022/03/04 07:52:31;;;;;;;1.45;0.70;;;;;;;20.68;27.94;103171.25;4197435;28;20098;-45
2022/03/04 07:54:32;;;;;;;1.65;0.63;;;;;;;20.68;27.61;103173.19;4196611;28;20125;-47
2022/03/04 07:56:34;;;;;;;0.82;0.68;;;;;;;20.68;27.99;103184.31;4208587;28;20032;-49
2022/03/04 07:58:38;;;;;;;1.15;0.60;;;;;;;20.66;27.77;103180.88;4213721;28;20044;-43
2022/03/04 08:00:39;;;;;;;1.38;0.70;;;;;;;20.59;27.58;103167.03;4213924;28;20108;-44
2022/03/04 08:02:41;;;;;;;1.15;0.50;;;;;;;20.59;27.70;103169.81;4213671;28;20052;-46
2022/03/04 08:04:43;;;;;;;0.68;0.55;;;;;;;20.61;27.71;103178.78;4213586;28;20032;-45
2022/03/04 08:06:47;;;;;;;1.00;0.63;;;;;;;20.59;27.93;103169.81;4213662;28;20082;-44
2022/03/04 08:08:48;;;;;;;2.05;0.80;;;;;;;20.62;28.12;103174.06;4214026;28;20495;-48
2022/03/04 08:10:50;;;;;;;0.68;0.50;;;;;;;20.62;28.08;103186.06;4213343;28;20111;-44
2022/03/04 08:12:51;;;;;;;1.48;0.77;;;;;;;20.63;28.06;103181.34;4214226;28;20101;-46
2022/03/04 08:14:52;;;;;;;0.95;0.60;;;;;;;20.64;27.86;103191.38;4213601;28;20437;-44
2022/03/04 08:16:57;;;;;;;1.48;0.57;;;;;;;20.64;27.94;103186.69;4214262;28;20051;-47
2022/03/04 08:19:03;;;;;;;2.27;0.83;;;;;;;20.63;27.86;103193.31;4213449;28;20101;-44
2022/03/04 08:21:05;;;;;;;0.93;0.60;;;;;;;20.66;28.01;103198.41;4213176;28;20097;-47
2022/03/04 08:23:06;;;;;;;1.17;0.70;;;;;;;20.66;27.98;103205.91;4213722;28;20081;-46
2022/03/04 08:25:08;;;;;;;1.23;0.70;;;;;;;20.67;28.03;103202.94;4213486;28;20044;-44
2022/03/04 08:27:09;;;;;;;1.90;0.55;;;;;;;20.68;28.26;103201.00;4213059;28;20077;-44
2022/03/04 08:29:11;;;;;;;1.80;0.80;;;;;;;20.68;28.29;103182.38;4213442;28;20445;-42
2022/03/04 08:31:15;;;;;;;0.50;0.50;;;;;;;20.70;28.25;103177.41;4213434;28;20111;-46
2022/03/04 08:33:17;;;;;;;1.07;0.57;;;;;;;20.71;28.21;103189.41;4213492;28;20036;-47
2022/03/04 08:35:18;;;;;;;1.17;0.57;;;;;;;20.72;28.24;103202.25;4211497;28;20487;-46
2022/03/04 08:37:20;;;;;;;0.70;0.70;;;;;;;20.72;28.21;103202.25;4196744;28;20040;-44
2022/03/04 08:39:21;;;;;;;1.20;0.57;;;;;;;20.72;28.05;103205.88;4213102;28;20121;-43
2022/03/04 08:41:24;;;;;;;0.98;0.68;;;;;;;20.77;28.14;103208.00;4213210;28;20109;-45
2022/03/04 08:43:25;;;;;;;1.52;0.60;;;;;;;20.76;28.00;103214.63;4213469;28;20081;-43
2022/03/04 08:45:27;;;;;;;0.63;0.52;;;;;;;20.77;27.95;103208.84;4213598;28;20032;-42
2022/03/04 08:47:28;;;;;;;0.90;0.70;;;;;;;20.77;27.77;103199.66;4213667;28;20426;-47
2022/03/04 08:49:29;;;;;;;0.68;0.65;;;;;;;20.78;27.72;103202.19;4213656;28;20044;-43
2022/03/04 08:51:33;;;;;;;0.60;0.60;;;;;;;20.78;27.56;103202.19;4214322;28;20376;-43
2022/03/04 08:53:35;;;;;;;1.92;0.75;;;;;;;20.77;27.81;103205.22;4216470;28;20047;-45
2022/03/04 08:55:41;;;;;;;1.65;0.80;;;;;;;20.74;27.81;103205.66;4216265;28;20039;-44
2022/03/04 08:57:47;;;;;;;0.93;0.60;;;;;;;20.79;27.71;103220.59;4214980;28;20430;-45
2022/03/04 08:59:48;;;;;;;1.27;0.57;;;;;;;20.81;27.82;103229.56;4216253;28;20137;-45
2022/03/04 09:01:50;;;;;;;0.73;0.63;;;;;;;20.81;27.54;103225.94;4216017;28;20098;-47
2022/03/04 09:03:51;;;;;;;1.65;1.00;;;;;;;20.79;27.80;103209.44;4214983;28;20032;-44
2022/03/04 09:05:53;;;;;;;0.90;0.52;;;;;;;20.76;27.72;103193.22;4216649;28;20424;-44
2022/03/04 09:07:54;;;;;;;0.80;0.68;;;;;;;20.80;27.74;103205.63;4203231;28;20082;-44
2022/03/04 09:09:55;;;;;;;1.25;0.80;;;;;;;20.82;27.72;103210.94;4209628;28;20095;-45
2022/03/04 09:12:00;;;;;;;1.55;0.70;;;;;;;20.76;27.50;103221.06;4216002;28;20101;-44
2022/03/04 09:14:03;;;;;;;0.80;0.60;;;;;;;20.83;27.44;103239.63;4216292;28;20145;-42
2022/03/04 09:16:05;;;;;;;0.68;0.60;;;;;;;20.83;27.84;103243.25;4216022;28;20040;-47
2022/03/04 09:18:09;;;;;;;1.60;0.75;;;;;;;20.83;27.41;103236.84;4216350;28;20497;-43
2022/03/04 09:20:12;;;;;;;1.05;0.80;;;;;;;20.83;27.70;103231.28;4215862;28;20040;-45
2022/03/04 09:22:13;;;;;;;1.15;0.70;;;;;;;20.82;27.52;103241.56;4198898;28;20074;-44
2022/03/04 09:24:15;;;;;;;1.10;0.88;;;;;;;20.83;27.55;103247.97;4214668;28;20552;-45
2022/03/04 09:26:16;;;;;;;0.70;0.55;;;;;;;20.79;27.60;103253.13;4215740;28;20040;-43
2022/03/04 09:28:18;;;;;;;0.95;0.40;;;;;;;20.82;27.41;103261.03;4214803;28;20036;-44